sensor_id;sensor_type;location;lat;lon;timestamp;temperature;humidity
29813;DHT22;16707;48.106;11.548;2023-02-21T00:00:32;3.60;99.90
29813;DHT22;16707;48.106;11.548;2023-02-21T00:03:16;3.60;99.90
29813;DHT22;16707;48.106;11.548;2023-02-21T00:06:02;3.50;99.90
29813;DHT22;16707;48.106;11.548;2023-02-21T00:08:46;3.40;99.90
29813;DHT22;16707;48.106;11.548;2023-02-21T00:11:36;3.30;99.90
29813;DHT22;16707;48.106;11.548;2023-02-21T00:14:23;3.30;99.90
29813;DHT22;16707;48.106;11.548;2023-02-21T00:17:08;3.40;99.90
29813;DHT22;16707;48.106;11.548;2023-02-21T00:19:53;3.40;99.90
29813;DHT22;16707;48.106;11.548;2023-02-21T00:22:38;3.30;99.90
29813;DHT22;16707;48.106;11.548;2023-02-21T00:25:22;3.20;99.90
29813;DHT22;16707;48.106;11.548;2023-02-21T00:28:07;3.10;99.90
29813;DHT22;16707;48.106;11.548;2023-02-21T00:30:56;3.10;99.90
29813;DHT22;16707;48.106;11.548;2023-02-21T00:33:41;3.00;99.90
29813;DHT22;16707;48.106;11.548;2023-02-21T00:36:25;2.90;99.90
29813;DHT22;16707;48.106;11.548;2023-02-21T00:39:11;2.90;99.90
29813;DHT22;16707;48.106;11.548;2023-02-21T00:41:56;3.00;99.90
29813;DHT22;16707;48.106;11.548;2023-02-21T00:44:40;3.10;99.90
29813;DHT22;16707;48.106;11.548;2023-02-21T00:47:25;3.20;99.90
29813;DHT22;16707;48.106;11.548;2023-02-21T00:50:09;3.10;99.90
29813;DHT22;16707;48.106;11.548;2023-02-21T00:52:54;3.10;99.90
29813;DHT22;16707;48.106;11.548;2023-02-21T00:55:39;3.00;99.90
29813;DHT22;16707;48.106;11.548;2023-02-21T00:58:27;2.90;99.90
29813;DHT22;16707;48.106;11.548;2023-02-21T01:01:11;2.90;99.90
29813;DHT22;16707;48.106;11.548;2023-02-21T01:03:57;2.90;99.90
29813;DHT22;16707;48.106;11.548;2023-02-21T01:06:49;2.90;99.90
29813;DHT22;16707;48.106;11.548;2023-02-21T01:09:33;2.90;99.90
29813;DHT22;16707;48.106;11.548;2023-02-21T01:12:21;2.80;99.90
29813;DHT22;16707;48.106;11.548;2023-02-21T01:15:06;2.70;99.90
29813;DHT22;16707;48.106;11.548;2023-02-21T01:17:56;2.60;99.90
29813;DHT22;16707;48.106;11.548;2023-02-21T01:20:40;2.60;99.90
29813;DHT22;16707;48.106;11.548;2023-02-21T01:23:24;2.50;99.90
29813;DHT22;16707;48.106;11.548;2023-02-21T01:26:11;2.50;99.90
29813;DHT22;16707;48.106;11.548;2023-02-21T01:28:57;2.40;99.90
29813;DHT22;16707;48.106;11.548;2023-02-21T01:31:41;2.40;99.90
29813;DHT22;16707;48.106;11.548;2023-02-21T01:34:25;2.40;99.90
29813;DHT22;16707;48.106;11.548;2023-02-21T01:37:10;2.40;99.90
29813;DHT22;16707;48.106;11.548;2023-02-21T01:39:54;2.40;99.90
29813;DHT22;16707;48.106;11.548;2023-02-21T01:42:45;2.40;99.90
29813;DHT22;16707;48.106;11.548;2023-02-21T01:45:42;2.40;99.90
29813;DHT22;16707;48.106;11.548;2023-02-21T01:48:29;2.40;99.90
29813;DHT22;16707;48.106;11.548;2023-02-21T01:51:17;2.30;99.90
29813;DHT22;16707;48.106;11.548;2023-02-21T01:54:03;2.30;99.90
29813;DHT22;16707;48.106;11.548;2023-02-21T01:56:48;2.40;99.90
29813;DHT22;16707;48.106;11.548;2023-02-21T01:59:33;2.40;99.90
29813;DHT22;16707;48.106;11.548;2023-02-21T02:02:26;2.40;99.90
29813;DHT22;16707;48.106;11.548;2023-02-21T02:05:12;2.40;99.90
29813;DHT22;16707;48.106;11.548;2023-02-21T02:08:00;2.30;99.90
29813;DHT22;16707;48.106;11.548;2023-02-21T02:10:45;2.40;99.90
29813;DHT22;16707;48.106;11.548;2023-02-21T02:13:48;2.40;99.90
29813;DHT22;16707;48.106;11.548;2023-02-21T02:16:27;2.30;99.90
29813;DHT22;16707;48.106;11.548;2023-02-21T02:22:37;2.20;99.90
29813;DHT22;16707;48.106;11.548;2023-02-21T02:25:41;2.20;99.90
29813;DHT22;16707;48.106;11.548;2023-02-21T02:31:30;2.00;99.90
29813;DHT22;16707;48.106;11.548;2023-02-21T02:37:17;2.10;99.90
29813;DHT22;16707;48.106;11.548;2023-02-21T02:39:52;2.20;99.90
29813;DHT22;16707;48.106;11.548;2023-02-21T02:42:32;2.20;99.90
29813;DHT22;16707;48.106;11.548;2023-02-21T02:45:06;2.10;99.90
29813;DHT22;16707;48.106;11.548;2023-02-21T02:47:36;2.10;99.90
29813;DHT22;16707;48.106;11.548;2023-02-21T02:50:05;2.10;99.90
29813;DHT22;16707;48.106;11.548;2023-02-21T02:52:35;2.00;99.90
29813;DHT22;16707;48.106;11.548;2023-02-21T02:55:18;2.00;99.90
29813;DHT22;16707;48.106;11.548;2023-02-21T02:57:49;1.90;99.90
29813;DHT22;16707;48.106;11.548;2023-02-21T03:00:17;1.80;99.90
29813;DHT22;16707;48.106;11.548;2023-02-21T03:03:10;1.90;99.90
29813;DHT22;16707;48.106;11.548;2023-02-21T03:05:57;2.00;99.90
29813;DHT22;16707;48.106;11.548;2023-02-21T03:08:36;2.00;99.90
29813;DHT22;16707;48.106;11.548;2023-02-21T03:11:10;2.00;99.90
29813;DHT22;16707;48.106;11.548;2023-02-21T03:13:43;2.00;99.90
29813;DHT22;16707;48.106;11.548;2023-02-21T03:16:19;2.00;99.90
29813;DHT22;16707;48.106;11.548;2023-02-21T03:18:51;2.00;99.90
29813;DHT22;16707;48.106;11.548;2023-02-21T03:21:26;2.00;99.90
29813;DHT22;16707;48.106;11.548;2023-02-21T03:24:12;1.90;99.90
29813;DHT22;16707;48.106;11.548;2023-02-21T03:26:47;1.80;99.90
29813;DHT22;16707;48.106;11.548;2023-02-21T03:29:16;1.80;99.90
29813;DHT22;16707;48.106;11.548;2023-02-21T03:31:49;1.80;99.90
29813;DHT22;16707;48.106;11.548;2023-02-21T03:34:17;1.80;99.90
29813;DHT22;16707;48.106;11.548;2023-02-21T03:36:50;1.80;99.90
29813;DHT22;16707;48.106;11.548;2023-02-21T03:39:18;1.70;99.90
29813;DHT22;16707;48.106;11.548;2023-02-21T03:41:45;1.60;99.90
29813;DHT22;16707;48.106;11.548;2023-02-21T03:44:14;1.60;99.90
29813;DHT22;16707;48.106;11.548;2023-02-21T03:46:44;1.60;99.90
29813;DHT22;16707;48.106;11.548;2023-02-21T03:49:12;1.50;99.90
29813;DHT22;16707;48.106;11.548;2023-02-21T03:51:39;1.60;99.90
29813;DHT22;16707;48.106;11.548;2023-02-21T03:54:06;1.60;99.90
29813;DHT22;16707;48.106;11.548;2023-02-21T03:56:35;1.60;99.90
29813;DHT22;16707;48.106;11.548;2023-02-21T03:59:11;1.60;99.90
29813;DHT22;16707;48.106;11.548;2023-02-21T04:01:40;1.60;99.90
29813;DHT22;16707;48.106;11.548;2023-02-21T04:04:10;1.60;99.90
29813;DHT22;16707;48.106;11.548;2023-02-21T04:06:40;1.50;99.90
29813;DHT22;16707;48.106;11.548;2023-02-21T04:09:07;1.50;99.90
29813;DHT22;16707;48.106;11.548;2023-02-21T04:11:35;1.50;99.90
29813;DHT22;16707;48.106;11.548;2023-02-21T04:14:08;1.40;99.90
29813;DHT22;16707;48.106;11.548;2023-02-21T04:16:37;1.50;99.90
29813;DHT22;16707;48.106;11.548;2023-02-21T04:19:04;1.40;99.90
29813;DHT22;16707;48.106;11.548;2023-02-21T04:21:32;1.40;99.90
29813;DHT22;16707;48.106;11.548;2023-02-21T04:24:02;1.40;99.90
29813;DHT22;16707;48.106;11.548;2023-02-21T04:26:30;1.50;99.90
29813;DHT22;16707;48.106;11.548;2023-02-21T04:29:02;1.40;99.90
29813;DHT22;16707;48.106;11.548;2023-02-21T04:31:32;1.30;99.90
29813;DHT22;16707;48.106;11.548;2023-02-21T04:34:02;1.40;99.90
29813;DHT22;16707;48.106;11.548;2023-02-21T04:36:29;1.40;99.90
29813;DHT22;16707;48.106;11.548;2023-02-21T04:39:02;1.40;99.90
29813;DHT22;16707;48.106;11.548;2023-02-21T04:41:29;1.50;99.90
29813;DHT22;16707;48.106;11.548;2023-02-21T04:43:56;1.50;99.90
29813;DHT22;16707;48.106;11.548;2023-02-21T04:46:25;1.60;99.90
29813;DHT22;16707;48.106;11.548;2023-02-21T04:48:52;1.60;99.90
29813;DHT22;16707;48.106;11.548;2023-02-21T04:51:22;1.60;99.90
29813;DHT22;16707;48.106;11.548;2023-02-21T04:54:07;1.50;99.90
29813;DHT22;16707;48.106;11.548;2023-02-21T04:56:34;1.40;99.90
29813;DHT22;16707;48.106;11.548;2023-02-21T04:59:02;1.40;99.90
29813;DHT22;16707;48.106;11.548;2023-02-21T05:01:30;1.50;99.90
29813;DHT22;16707;48.106;11.548;2023-02-21T05:03:58;1.50;99.90
29813;DHT22;16707;48.106;11.548;2023-02-21T05:06:26;1.60;99.90
29813;DHT22;16707;48.106;11.548;2023-02-21T05:08:54;1.80;99.90
29813;DHT22;16707;48.106;11.548;2023-02-21T05:11:24;2.00;99.90
29813;DHT22;16707;48.106;11.548;2023-02-21T05:13:56;2.00;99.90
29813;DHT22;16707;48.106;11.548;2023-02-21T05:16:24;2.10;99.90
29813;DHT22;16707;48.106;11.548;2023-02-21T05:19:01;2.10;99.90
29813;DHT22;16707;48.106;11.548;2023-02-21T05:21:28;2.10;99.90
29813;DHT22;16707;48.106;11.548;2023-02-21T05:23:55;2.10;99.90
29813;DHT22;16707;48.106;11.548;2023-02-21T05:26:25;2.10;99.90
29813;DHT22;16707;48.106;11.548;2023-02-21T05:28:52;2.00;99.90
29813;DHT22;16707;48.106;11.548;2023-02-21T05:31:22;2.00;99.90
29813;DHT22;16707;48.106;11.548;2023-02-21T05:33:55;2.00;99.90
29813;DHT22;16707;48.106;11.548;2023-02-21T05:36:25;2.00;99.90
29813;DHT22;16707;48.106;11.548;2023-02-21T05:38:53;2.00;99.90
29813;DHT22;16707;48.106;11.548;2023-02-21T05:41:23;2.00;99.90
29813;DHT22;16707;48.106;11.548;2023-02-21T05:43:51;2.00;99.90
29813;DHT22;16707;48.106;11.548;2023-02-21T05:46:21;2.00;99.90
29813;DHT22;16707;48.106;11.548;2023-02-21T05:48:48;2.10;99.90
29813;DHT22;16707;48.106;11.548;2023-02-21T05:51:17;2.10;99.90
29813;DHT22;16707;48.106;11.548;2023-02-21T05:53:44;2.20;99.90
29813;DHT22;16707;48.106;11.548;2023-02-21T05:56:12;2.20;99.90
29813;DHT22;16707;48.106;11.548;2023-02-21T05:58:40;2.30;99.90
29813;DHT22;16707;48.106;11.548;2023-02-21T06:01:07;2.20;99.90
29813;DHT22;16707;48.106;11.548;2023-02-21T06:03:36;2.20;99.90
29813;DHT22;16707;48.106;11.548;2023-02-21T06:06:07;2.30;99.90
29813;DHT22;16707;48.106;11.548;2023-02-21T06:08:43;2.30;99.90
29813;DHT22;16707;48.106;11.548;2023-02-21T06:11:11;2.30;99.90
29813;DHT22;16707;48.106;11.548;2023-02-21T06:13:38;2.30;99.90
29813;DHT22;16707;48.106;11.548;2023-02-21T06:16:06;2.40;99.90
29813;DHT22;16707;48.106;11.548;2023-02-21T06:18:33;2.40;99.90
29813;DHT22;16707;48.106;11.548;2023-02-21T06:21:00;2.40;99.90
29813;DHT22;16707;48.106;11.548;2023-02-21T06:23:27;2.50;99.90
29813;DHT22;16707;48.106;11.548;2023-02-21T06:25:56;2.50;99.90
29813;DHT22;16707;48.106;11.548;2023-02-21T06:28:27;2.60;99.90
29813;DHT22;16707;48.106;11.548;2023-02-21T06:30:57;2.70;99.90
29813;DHT22;16707;48.106;11.548;2023-02-21T06:33:24;2.60;99.90
29813;DHT22;16707;48.106;11.548;2023-02-21T06:35:51;2.80;99.90
29813;DHT22;16707;48.106;11.548;2023-02-21T06:38:18;2.80;99.90
29813;DHT22;16707;48.106;11.548;2023-02-21T06:40:45;3.00;99.90
29813;DHT22;16707;48.106;11.548;2023-02-21T06:43:13;3.00;99.90
29813;DHT22;16707;48.106;11.548;2023-02-21T06:45:40;3.20;99.90
29813;DHT22;16707;48.106;11.548;2023-02-21T06:48:07;3.20;99.90
29813;DHT22;16707;48.106;11.548;2023-02-21T06:50:34;3.30;99.90
29813;DHT22;16707;48.106;11.548;2023-02-21T06:53:01;3.40;99.90
29813;DHT22;16707;48.106;11.548;2023-02-21T06:55:28;3.50;99.90
29813;DHT22;16707;48.106;11.548;2023-02-21T06:57:58;3.60;99.90
29813;DHT22;16707;48.106;11.548;2023-02-21T07:00:27;3.70;99.90
29813;DHT22;16707;48.106;11.548;2023-02-21T07:02:56;3.80;99.90
29813;DHT22;16707;48.106;11.548;2023-02-21T07:05:26;3.90;99.90
29813;DHT22;16707;48.106;11.548;2023-02-21T07:07:53;4.00;99.90
29813;DHT22;16707;48.106;11.548;2023-02-21T07:10:23;4.10;99.90
29813;DHT22;16707;48.106;11.548;2023-02-21T07:12:50;4.10;99.90
29813;DHT22;16707;48.106;11.548;2023-02-21T07:15:17;4.10;99.90
29813;DHT22;16707;48.106;11.548;2023-02-21T07:17:48;4.20;99.90
29813;DHT22;16707;48.106;11.548;2023-02-21T07:20:19;4.30;99.90
29813;DHT22;16707;48.106;11.548;2023-02-21T07:22:46;4.50;99.90
29813;DHT22;16707;48.106;11.548;2023-02-21T07:25:17;4.70;99.90
29813;DHT22;16707;48.106;11.548;2023-02-21T07:27:45;4.80;99.90
29813;DHT22;16707;48.106;11.548;2023-02-21T07:30:13;5.00;99.90
29813;DHT22;16707;48.106;11.548;2023-02-21T07:32:44;5.00;99.90
29813;DHT22;16707;48.106;11.548;2023-02-21T07:35:15;5.10;99.90
29813;DHT22;16707;48.106;11.548;2023-02-21T07:37:42;5.30;99.90
29813;DHT22;16707;48.106;11.548;2023-02-21T07:40:10;5.40;99.90
29813;DHT22;16707;48.106;11.548;2023-02-21T07:42:40;5.50;99.70
29813;DHT22;16707;48.106;11.548;2023-02-21T07:45:08;5.60;99.50
29813;DHT22;16707;48.106;11.548;2023-02-21T07:47:35;5.70;98.60
29813;DHT22;16707;48.106;11.548;2023-02-21T07:50:03;5.80;98.20
29813;DHT22;16707;48.106;11.548;2023-02-21T07:52:31;6.00;97.50
29813;DHT22;16707;48.106;11.548;2023-02-21T07:55:02;6.10;96.70
29813;DHT22;16707;48.106;11.548;2023-02-21T07:57:29;6.30;96.20
29813;DHT22;16707;48.106;11.548;2023-02-21T07:59:56;6.40;96.10
29813;DHT22;16707;48.106;11.548;2023-02-21T08:02:23;6.50;95.90
29813;DHT22;16707;48.106;11.548;2023-02-21T08:04:51;6.70;94.60
29813;DHT22;16707;48.106;11.548;2023-02-21T08:07:18;7.00;93.20
29813;DHT22;16707;48.106;11.548;2023-02-21T08:09:46;7.50;91.60
29813;DHT22;16707;48.106;11.548;2023-02-21T08:12:13;7.80;90.50
29813;DHT22;16707;48.106;11.548;2023-02-21T08:14:40;7.90;90.00
29813;DHT22;16707;48.106;11.548;2023-02-21T08:17:09;8.10;89.30
29813;DHT22;16707;48.106;11.548;2023-02-21T08:19:38;8.10;89.70
29813;DHT22;16707;48.106;11.548;2023-02-21T08:22:05;8.10;89.60
29813;DHT22;16707;48.106;11.548;2023-02-21T08:24:32;8.20;87.00
29813;DHT22;16707;48.106;11.548;2023-02-21T08:27:01;8.30;86.90
29813;DHT22;16707;48.106;11.548;2023-02-21T08:29:28;8.40;86.70
29813;DHT22;16707;48.106;11.548;2023-02-21T08:31:58;8.60;85.40
29813;DHT22;16707;48.106;11.548;2023-02-21T08:34:25;8.70;84.50
29813;DHT22;16707;48.106;11.548;2023-02-21T08:36:59;8.90;83.00
29813;DHT22;16707;48.106;11.548;2023-02-21T08:39:26;9.10;81.50
29813;DHT22;16707;48.106;11.548;2023-02-21T08:41:55;9.30;78.90
29813;DHT22;16707;48.106;11.548;2023-02-21T08:44:23;9.50;78.70
29813;DHT22;16707;48.106;11.548;2023-02-21T08:46:50;9.70;76.50
29813;DHT22;16707;48.106;11.548;2023-02-21T08:49:17;9.90;74.70
29813;DHT22;16707;48.106;11.548;2023-02-21T08:51:44;10.00;74.10
29813;DHT22;16707;48.106;11.548;2023-02-21T08:54:12;10.20;73.30
29813;DHT22;16707;48.106;11.548;2023-02-21T08:56:41;10.30;72.30
29813;DHT22;16707;48.106;11.548;2023-02-21T08:59:08;10.60;72.10
29813;DHT22;16707;48.106;11.548;2023-02-21T09:01:36;10.80;71.30
29813;DHT22;16707;48.106;11.548;2023-02-21T09:04:05;10.80;70.10
29813;DHT22;16707;48.106;11.548;2023-02-21T09:06:32;10.90;68.90
29813;DHT22;16707;48.106;11.548;2023-02-21T09:08:59;11.10;68.90
29813;DHT22;16707;48.106;11.548;2023-02-21T09:11:26;11.20;67.60
29813;DHT22;16707;48.106;11.548;2023-02-21T09:13:53;11.30;67.70
29813;DHT22;16707;48.106;11.548;2023-02-21T09:16:20;11.30;66.30
29813;DHT22;16707;48.106;11.548;2023-02-21T09:18:54;11.30;66.20
29813;DHT22;16707;48.106;11.548;2023-02-21T09:21:21;11.40;66.20
29813;DHT22;16707;48.106;11.548;2023-02-21T09:23:51;11.50;65.50
29813;DHT22;16707;48.106;11.548;2023-02-21T09:26:24;11.60;66.10
29813;DHT22;16707;48.106;11.548;2023-02-21T09:28:51;11.60;64.50
29813;DHT22;16707;48.106;11.548;2023-02-21T09:31:21;11.70;65.50
29813;DHT22;16707;48.106;11.548;2023-02-21T09:33:48;11.80;64.10
29813;DHT22;16707;48.106;11.548;2023-02-21T09:36:16;11.90;63.50
29813;DHT22;16707;48.106;11.548;2023-02-21T09:38:49;12.00;62.10
29813;DHT22;16707;48.106;11.548;2023-02-21T09:41:16;12.10;61.00
29813;DHT22;16707;48.106;11.548;2023-02-21T09:43:46;12.10;60.90
29813;DHT22;16707;48.106;11.548;2023-02-21T09:46:20;12.20;59.10
29813;DHT22;16707;48.106;11.548;2023-02-21T09:48:51;12.20;59.30
29813;DHT22;16707;48.106;11.548;2023-02-21T09:51:20;12.20;59.20
29813;DHT22;16707;48.106;11.548;2023-02-21T09:53:53;12.30;60.00
29813;DHT22;16707;48.106;11.548;2023-02-21T09:56:26;12.30;58.40
29813;DHT22;16707;48.106;11.548;2023-02-21T09:58:54;12.40;58.80
29813;DHT22;16707;48.106;11.548;2023-02-21T10:01:30;12.50;57.70
29813;DHT22;16707;48.106;11.548;2023-02-21T10:04:11;12.60;58.10
29813;DHT22;16707;48.106;11.548;2023-02-21T10:06:48;12.70;57.60
29813;DHT22;16707;48.106;11.548;2023-02-21T10:09:26;12.80;56.00
29813;DHT22;16707;48.106;11.548;2023-02-21T10:12:05;12.90;56.90
29813;DHT22;16707;48.106;11.548;2023-02-21T10:14:42;13.10;56.50
29813;DHT22;16707;48.106;11.548;2023-02-21T10:17:15;13.20;55.40
29813;DHT22;16707;48.106;11.548;2023-02-21T10:19:49;13.10;55.30
29813;DHT22;16707;48.106;11.548;2023-02-21T10:22:22;13.30;55.50
29813;DHT22;16707;48.106;11.548;2023-02-21T10:24:51;13.30;54.70
29813;DHT22;16707;48.106;11.548;2023-02-21T10:27:20;13.50;54.50
29813;DHT22;16707;48.106;11.548;2023-02-21T10:29:51;13.50;53.60
29813;DHT22;16707;48.106;11.548;2023-02-21T10:32:21;13.50;54.00
29813;DHT22;16707;48.106;11.548;2023-02-21T10:34:51;13.60;54.30
29813;DHT22;16707;48.106;11.548;2023-02-21T10:37:34;13.70;54.90
29813;DHT22;16707;48.106;11.548;2023-02-21T10:40:14;13.80;54.20
29813;DHT22;16707;48.106;11.548;2023-02-21T10:42:51;13.80;54.40
29813;DHT22;16707;48.106;11.548;2023-02-21T10:45:26;13.90;53.60
29813;DHT22;16707;48.106;11.548;2023-02-21T10:47:59;14.00;53.20
29813;DHT22;16707;48.106;11.548;2023-02-21T10:50:44;14.00;53.20
29813;DHT22;16707;48.106;11.548;2023-02-21T10:53:27;14.10;52.90
29813;DHT22;16707;48.106;11.548;2023-02-21T10:56:08;14.20;53.00
29813;DHT22;16707;48.106;11.548;2023-02-21T10:58:38;14.20;53.50
29813;DHT22;16707;48.106;11.548;2023-02-21T11:01:11;14.30;53.00
29813;DHT22;16707;48.106;11.548;2023-02-21T11:03:43;14.30;53.00
29813;DHT22;16707;48.106;11.548;2023-02-21T11:06:21;14.20;52.90
29813;DHT22;16707;48.106;11.548;2023-02-21T11:08:54;13.90;52.70
29813;DHT22;16707;48.106;11.548;2023-02-21T11:11:34;14.10;52.80
29813;DHT22;16707;48.106;11.548;2023-02-21T11:14:24;14.20;52.70
29813;DHT22;16707;48.106;11.548;2023-02-21T11:17:15;14.20;52.20
29813;DHT22;16707;48.106;11.548;2023-02-21T11:19:47;14.40;52.90
29813;DHT22;16707;48.106;11.548;2023-02-21T11:22:19;14.40;51.70
29813;DHT22;16707;48.106;11.548;2023-02-21T11:24:52;14.40;52.10
29813;DHT22;16707;48.106;11.548;2023-02-21T11:27:27;14.60;51.80
29813;DHT22;16707;48.106;11.548;2023-02-21T11:30:01;14.60;51.20
29813;DHT22;16707;48.106;11.548;2023-02-21T11:32:32;14.70;51.20
29813;DHT22;16707;48.106;11.548;2023-02-21T11:35:20;14.80;51.20
29813;DHT22;16707;48.106;11.548;2023-02-21T11:37:51;14.80;50.60
29813;DHT22;16707;48.106;11.548;2023-02-21T11:40:41;14.90;50.40
29813;DHT22;16707;48.106;11.548;2023-02-21T11:43:21;14.90;50.70
29813;DHT22;16707;48.106;11.548;2023-02-21T11:46:02;14.90;50.40
29813;DHT22;16707;48.106;11.548;2023-02-21T11:48:33;14.80;50.40
29813;DHT22;16707;48.106;11.548;2023-02-21T11:51:28;14.90;50.60
29813;DHT22;16707;48.106;11.548;2023-02-21T11:53:56;14.80;50.20
29813;DHT22;16707;48.106;11.548;2023-02-21T11:56:46;14.80;49.90
29813;DHT22;16707;48.106;11.548;2023-02-21T11:59:28;14.80;50.70
29813;DHT22;16707;48.106;11.548;2023-02-21T12:02:20;15.00;50.90
29813;DHT22;16707;48.106;11.548;2023-02-21T12:05:11;15.10;50.80
29813;DHT22;16707;48.106;11.548;2023-02-21T12:07:45;15.30;49.60
29813;DHT22;16707;48.106;11.548;2023-02-21T12:10:32;15.20;49.40
29813;DHT22;16707;48.106;11.548;2023-02-21T12:13:23;15.20;49.20
29813;DHT22;16707;48.106;11.548;2023-02-21T12:15:59;15.20;49.50
29813;DHT22;16707;48.106;11.548;2023-02-21T12:18:46;15.20;48.80
29813;DHT22;16707;48.106;11.548;2023-02-21T12:21:37;15.30;49.40
29813;DHT22;16707;48.106;11.548;2023-02-21T12:24:28;15.40;49.10
29813;DHT22;16707;48.106;11.548;2023-02-21T12:27:14;15.40;49.10
29813;DHT22;16707;48.106;11.548;2023-02-21T12:29:55;15.40;49.20
29813;DHT22;16707;48.106;11.548;2023-02-21T12:32:50;15.50;49.20
29813;DHT22;16707;48.106;11.548;2023-02-21T12:35:40;15.50;48.50
29813;DHT22;16707;48.106;11.548;2023-02-21T12:38:24;15.50;48.30
29813;DHT22;16707;48.106;11.548;2023-02-21T12:41:08;15.60;48.90
29813;DHT22;16707;48.106;11.548;2023-02-21T12:43:53;15.70;49.30
29813;DHT22;16707;48.106;11.548;2023-02-21T12:46:30;15.70;48.70
29813;DHT22;16707;48.106;11.548;2023-02-21T12:49:04;15.70;48.70
29813;DHT22;16707;48.106;11.548;2023-02-21T12:51:44;15.70;48.50
29813;DHT22;16707;48.106;11.548;2023-02-21T12:54:15;15.70;48.40
29813;DHT22;16707;48.106;11.548;2023-02-21T12:56:48;15.80;48.00
29813;DHT22;16707;48.106;11.548;2023-02-21T12:59:25;15.70;48.10
29813;DHT22;16707;48.106;11.548;2023-02-21T13:02:00;15.70;48.70
29813;DHT22;16707;48.106;11.548;2023-02-21T13:04:35;15.90;48.70
29813;DHT22;16707;48.106;11.548;2023-02-21T13:07:12;15.70;48.80
29813;DHT22;16707;48.106;11.548;2023-02-21T13:09:54;15.60;49.50
29813;DHT22;16707;48.106;11.548;2023-02-21T13:12:29;15.80;48.90
29813;DHT22;16707;48.106;11.548;2023-02-21T13:15:02;15.80;48.70
29813;DHT22;16707;48.106;11.548;2023-02-21T13:17:49;15.80;48.80
29813;DHT22;16707;48.106;11.548;2023-02-21T13:20:25;15.90;49.10
29813;DHT22;16707;48.106;11.548;2023-02-21T13:26:26;15.70;48.90
29813;DHT22;16707;48.106;11.548;2023-02-21T13:29:19;15.70;49.50
29813;DHT22;16707;48.106;11.548;2023-02-21T13:31:57;15.80;49.70
29813;DHT22;16707;48.106;11.548;2023-02-21T13:34:29;15.80;49.50
29813;DHT22;16707;48.106;11.548;2023-02-21T13:37:00;15.80;49.90
29813;DHT22;16707;48.106;11.548;2023-02-21T13:39:44;15.90;49.10
29813;DHT22;16707;48.106;11.548;2023-02-21T13:42:19;15.90;49.30
29813;DHT22;16707;48.106;11.548;2023-02-21T13:44:49;15.90;49.30
29813;DHT22;16707;48.106;11.548;2023-02-21T13:47:21;16.00;49.30
29813;DHT22;16707;48.106;11.548;2023-02-21T13:49:59;16.00;49.90
29813;DHT22;16707;48.106;11.548;2023-02-21T13:53:16;15.90;50.30
29813;DHT22;16707;48.106;11.548;2023-02-21T13:59:34;15.80;50.20
29813;DHT22;16707;48.106;11.548;2023-02-21T14:02:22;15.80;50.50
29813;DHT22;16707;48.106;11.548;2023-02-21T14:05:03;15.80;50.50
29813;DHT22;16707;48.106;11.548;2023-02-21T14:07:54;15.90;50.80
29813;DHT22;16707;48.106;11.548;2023-02-21T14:10:28;15.80;50.20
29813;DHT22;16707;48.106;11.548;2023-02-21T14:13:16;15.90;50.30
29813;DHT22;16707;48.106;11.548;2023-02-21T14:15:50;16.00;50.30
29813;DHT22;16707;48.106;11.548;2023-02-21T14:18:27;16.00;50.30
29813;DHT22;16707;48.106;11.548;2023-02-21T14:21:00;16.00;50.40
29813;DHT22;16707;48.106;11.548;2023-02-21T14:23:40;16.10;50.50
29813;DHT22;16707;48.106;11.548;2023-02-21T14:29:31;16.00;49.90
29813;DHT22;16707;48.106;11.548;2023-02-21T14:32:23;15.90;50.40
29813;DHT22;16707;48.106;11.548;2023-02-21T14:34:55;16.10;49.90
29813;DHT22;16707;48.106;11.548;2023-02-21T14:37:29;16.00;50.10
29813;DHT22;16707;48.106;11.548;2023-02-21T14:40:01;16.00;50.30
29813;DHT22;16707;48.106;11.548;2023-02-21T14:42:42;16.00;50.50
29813;DHT22;16707;48.106;11.548;2023-02-21T14:45:36;16.00;50.40
29813;DHT22;16707;48.106;11.548;2023-02-21T14:58:51;15.80;51.90
29813;DHT22;16707;48.106;11.548;2023-02-21T15:02:00;15.70;51.10
29813;DHT22;16707;48.106;11.548;2023-02-21T15:04:40;15.70;51.40
29813;DHT22;16707;48.106;11.548;2023-02-21T15:07:25;15.70;50.70
29813;DHT22;16707;48.106;11.548;2023-02-21T15:10:12;15.60;51.20
29813;DHT22;16707;48.106;11.548;2023-02-21T15:12:46;15.60;51.20
29813;DHT22;16707;48.106;11.548;2023-02-21T15:15:19;15.70;51.30
29813;DHT22;16707;48.106;11.548;2023-02-21T15:17:55;15.70;51.50
29813;DHT22;16707;48.106;11.548;2023-02-21T15:20:26;15.50;51.80
29813;DHT22;16707;48.106;11.548;2023-02-21T15:22:58;15.40;51.80
29813;DHT22;16707;48.106;11.548;2023-02-21T15:25:30;15.40;52.40
29813;DHT22;16707;48.106;11.548;2023-02-21T15:28:03;15.30;52.00
29813;DHT22;16707;48.106;11.548;2023-02-21T15:30:56;15.30;52.30
29813;DHT22;16707;48.106;11.548;2023-02-21T15:33:33;15.00;52.60
29813;DHT22;16707;48.106;11.548;2023-02-21T15:36:04;15.10;52.60
29813;DHT22;16707;48.106;11.548;2023-02-21T15:38:38;14.90;52.80
29813;DHT22;16707;48.106;11.548;2023-02-21T15:41:23;14.80;53.20
29813;DHT22;16707;48.106;11.548;2023-02-21T15:43:56;14.60;53.40
29813;DHT22;16707;48.106;11.548;2023-02-21T15:46:28;14.60;53.80
29813;DHT22;16707;48.106;11.548;2023-02-21T15:49:01;14.70;53.50
29813;DHT22;16707;48.106;11.548;2023-02-21T15:51:32;14.90;53.60
29813;DHT22;16707;48.106;11.548;2023-02-21T15:54:08;14.80;53.30
29813;DHT22;16707;48.106;11.548;2023-02-21T15:56:40;14.60;53.80
29813;DHT22;16707;48.106;11.548;2023-02-21T15:59:10;14.50;54.20
29813;DHT22;16707;48.106;11.548;2023-02-21T16:01:39;14.40;54.40
29813;DHT22;16707;48.106;11.548;2023-02-21T16:04:20;14.10;55.20
29813;DHT22;16707;48.106;11.548;2023-02-21T16:06:51;14.00;55.80
29813;DHT22;16707;48.106;11.548;2023-02-21T16:09:28;13.90;56.00
29813;DHT22;16707;48.106;11.548;2023-02-21T16:12:04;13.80;56.50
29813;DHT22;16707;48.106;11.548;2023-02-21T16:14:38;13.80;56.60
29813;DHT22;16707;48.106;11.548;2023-02-21T16:17:19;13.70;56.50
29813;DHT22;16707;48.106;11.548;2023-02-21T16:19:54;13.70;56.70
29813;DHT22;16707;48.106;11.548;2023-02-21T16:22:37;13.60;57.10
29813;DHT22;16707;48.106;11.548;2023-02-21T16:25:18;13.30;57.90
29813;DHT22;16707;48.106;11.548;2023-02-21T16:27:51;13.10;58.80
29813;DHT22;16707;48.106;11.548;2023-02-21T16:30:20;12.90;59.20
29813;DHT22;16707;48.106;11.548;2023-02-21T16:32:51;12.80;60.10
29813;DHT22;16707;48.106;11.548;2023-02-21T16:35:23;12.60;60.80
29813;DHT22;16707;48.106;11.548;2023-02-21T16:37:55;12.50;61.50
29813;DHT22;16707;48.106;11.548;2023-02-21T16:40:25;12.30;61.70
29813;DHT22;16707;48.106;11.548;2023-02-21T16:42:58;12.20;62.30
29813;DHT22;16707;48.106;11.548;2023-02-21T16:45:26;12.10;63.10